sensor_id;sensor_type;location;lat;lon;timestamp;pressure;altitude;pressure_sealevel;temperature;humidity
47670;BME280;33408;52.062;11.722;2023-03-22T00:02:19;100792.97;;;9.59;100.00
47670;BME280;33408;52.062;11.722;2023-03-22T00:04:47;100791.41;;;9.47;100.00
47670;BME280;33408;52.062;11.722;2023-03-22T00:07:13;100789.66;;;9.47;100.00
47670;BME280;33408;52.062;11.722;2023-03-22T00:09:41;100784.50;;;9.44;100.00
47670;BME280;33408;52.062;11.722;2023-03-22T00:12:08;100785.31;;;9.48;100.00
47670;BME280;33408;52.062;11.722;2023-03-22T00:14:35;100784.38;;;9.57;100.00
47670;BME280;33408;52.062;11.722;2023-03-22T00:17:01;100781.00;;;9.52;100.00
47670;BME280;33408;52.062;11.722;2023-03-22T00:19:28;100777.47;;;9.56;100.00
47670;BME280;33408;52.062;11.722;2023-03-22T00:21:58;100777.69;;;9.40;100.00
47670;BME280;33408;52.062;11.722;2023-03-22T00:24:25;100775.81;;;9.52;100.00
47670;BME280;33408;52.062;11.722;2023-03-22T00:26:53;100771.66;;;9.37;100.00
47670;BME280;33408;52.062;11.722;2023-03-22T00:29:20;100771.75;;;9.30;100.00
47670;BME280;33408;52.062;11.722;2023-03-22T00:31:48;100769.22;;;9.29;100.00
47670;BME280;33408;52.062;11.722;2023-03-22T00:34:16;100747.59;;;9.33;100.00
47670;BME280;33408;52.062;11.722;2023-03-22T00:36:42;100750.00;;;9.47;100.00
47670;BME280;33408;52.062;11.722;2023-03-22T00:39:09;100745.66;;;9.47;100.00
47670;BME280;33408;52.062;11.722;2023-03-22T00:41:36;100745.97;;;9.26;100.00
47670;BME280;33408;52.062;11.722;2023-03-22T00:44:04;100750.25;;;9.25;100.00
47670;BME280;33408;52.062;11.722;2023-03-22T00:46:30;100753.75;;;9.23;100.00
47670;BME280;33408;52.062;11.722;2023-03-22T00:48:57;100748.53;;;9.26;100.00
47670;BME280;33408;52.062;11.722;2023-03-22T00:51:23;100746.09;;;9.15;100.00
47670;BME280;33408;52.062;11.722;2023-03-22T00:53:50;100736.75;;;9.03;100.00
47670;BME280;33408;52.062;11.722;2023-03-22T00:56:18;100736.78;;;9.00;100.00
47670;BME280;33408;52.062;11.722;2023-03-22T00:58:47;100742.78;;;9.02;100.00
47670;BME280;33408;52.062;11.722;2023-03-22T01:01:15;100742.75;;;9.05;100.00
47670;BME280;33408;52.062;11.722;2023-03-22T01:03:42;100742.88;;;8.93;100.00
47670;BME280;33408;52.062;11.722;2023-03-22T01:06:10;100743.66;;;9.00;100.00
47670;BME280;33408;52.062;11.722;2023-03-22T01:08:36;100737.78;;;8.88;100.00
47670;BME280;33408;52.062;11.722;2023-03-22T01:11:04;100747.25;;;8.88;100.00
47670;BME280;33408;52.062;11.722;2023-03-22T01:13:31;100749.00;;;8.87;100.00
47670;BME280;33408;52.062;11.722;2023-03-22T01:15:58;100743.81;;;8.89;100.00
47670;BME280;33408;52.062;11.722;2023-03-22T01:18:26;100734.34;;;8.86;100.00
47670;BME280;33408;52.062;11.722;2023-03-22T01:20:52;100737.78;;;8.88;100.00
47670;BME280;33408;52.062;11.722;2023-03-22T01:23:19;100730.84;;;8.93;100.00
47670;BME280;33408;52.062;11.722;2023-03-22T01:25:46;100723.94;;;8.92;100.00
47670;BME280;33408;52.062;11.722;2023-03-22T01:28:12;100727.44;;;8.88;100.00
47670;BME280;33408;52.062;11.722;2023-03-22T01:30:39;100719.63;;;8.91;100.00
47670;BME280;33408;52.062;11.722;2023-03-22T01:33:06;100718.75;;;8.96;100.00
47670;BME280;33408;52.062;11.722;2023-03-22T01:35:34;100717.88;;;8.95;100.00
47670;BME280;33408;52.062;11.722;2023-03-22T01:38:01;100710.97;;;8.99;100.00
47670;BME280;33408;52.062;11.722;2023-03-22T01:40:28;100706.59;;;9.02;100.00
47670;BME280;33408;52.062;11.722;2023-03-22T01:42:55;100711.72;;;9.07;100.00
47670;BME280;33408;52.062;11.722;2023-03-22T01:45:40;100704.03;;;8.99;100.00
47670;BME280;33408;52.062;11.722;2023-03-22T01:48:19;100703.25;;;8.94;100.00
47670;BME280;33408;52.062;11.722;2023-03-22T01:50:54;100699.84;;;8.90;100.00
47670;BME280;33408;52.062;11.722;2023-03-22T01:53:24;100709.28;;;8.94;100.00
47670;BME280;33408;52.062;11.722;2023-03-22T01:55:52;100708.41;;;8.94;100.00
47670;BME280;33408;52.062;11.722;2023-03-22T01:58:19;100701.56;;;8.90;100.00
47670;BME280;33408;52.062;11.722;2023-03-22T02:00:47;100707.53;;;8.95;100.00
47670;BME280;33408;52.062;11.722;2023-03-22T02:03:17;100700.69;;;8.91;100.00
47670;BME280;33408;52.062;11.722;2023-03-22T02:05:47;100704.88;;;9.01;100.00
47670;BME280;33408;52.062;11.722;2023-03-22T02:08:15;100710.19;;;8.90;100.00
47670;BME280;33408;52.062;11.722;2023-03-22T02:10:41;100699.03;;;8.84;100.00
47670;BME280;33408;52.062;11.722;2023-03-22T02:13:22;100706.72;;;8.90;100.00
47670;BME280;33408;52.062;11.722;2023-03-22T02:15:59;100707.69;;;8.83;100.00
47670;BME280;33408;52.062;11.722;2023-03-22T02:18:41;100709.22;;;8.98;100.00
47670;BME280;33408;52.062;11.722;2023-03-22T02:21:23;100703.22;;;8.96;100.00
47670;BME280;33408;52.062;11.722;2023-03-22T02:24:31;100705.84;;;8.94;100.00
47670;BME280;33408;52.062;11.722;2023-03-22T02:27:22;100692.94;;;8.92;100.00
47670;BME280;33408;52.062;11.722;2023-03-22T02:29:56;100696.28;;;8.99;100.00
47670;BME280;33408;52.062;11.722;2023-03-22T02:35:29;100694.53;;;9.01;100.00
47670;BME280;33408;52.062;11.722;2023-03-22T02:41:11;100688.47;;;9.05;100.00
47670;BME280;33408;52.062;11.722;2023-03-22T02:43:50;100692.88;;;8.96;100.00
47670;BME280;33408;52.062;11.722;2023-03-22T02:46:28;100690.34;;;8.91;100.00
47670;BME280;33408;52.062;11.722;2023-03-22T02:49:01;100686.75;;;9.04;100.00
47670;BME280;33408;52.062;11.722;2023-03-22T02:51:34;100693.75;;;8.96;100.00
47670;BME280;33408;52.062;11.722;2023-03-22T02:54:04;100692.81;;;9.03;100.00
47670;BME280;33408;52.062;11.722;2023-03-22T02:56:37;100688.63;;;8.91;100.00
47670;BME280;33408;52.062;11.722;2023-03-22T02:59:08;100685.97;;;8.98;100.00
47670;BME280;33408;52.062;11.722;2023-03-22T03:01:39;100689.38;;;9.00;100.00
47670;BME280;33408;52.062;11.722;2023-03-22T03:04:11;100684.19;;;9.01;100.00
47670;BME280;33408;52.062;11.722;2023-03-22T03:06:41;100685.97;;;8.98;100.00
47670;BME280;33408;52.062;11.722;2023-03-22T03:09:11;100681.75;;;8.90;100.00
47670;BME280;33408;52.062;11.722;2023-03-22T03:11:44;100671.28;;;9.00;100.00
47670;BME280;33408;52.062;11.722;2023-03-22T03:14:22;100677.38;;;8.96;100.00
47670;BME280;33408;52.062;11.722;2023-03-22T03:17:06;100674.00;;;8.90;100.00
47670;BME280;33408;52.062;11.722;2023-03-22T03:19:41;100673.06;;;8.96;100.00
47670;BME280;33408;52.062;11.722;2023-03-22T03:22:24;100674.81;;;8.94;100.00
47670;BME280;33408;52.062;11.722;2023-03-22T03:25:02;100678.22;;;8.98;100.00
47670;BME280;33408;52.062;11.722;2023-03-22T03:27:35;100673.00;;;8.99;100.00
47670;BME280;33408;52.062;11.722;2023-03-22T03:30:08;100670.50;;;8.94;100.00
47670;BME280;33408;52.062;11.722;2023-03-22T03:32:41;100670.53;;;8.91;100.00
47670;BME280;33408;52.062;11.722;2023-03-22T03:35:13;100662.78;;;8.90;100.00
47670;BME280;33408;52.062;11.722;2023-03-22T03:37:49;100660.97;;;8.97;100.00
47670;BME280;33408;52.062;11.722;2023-03-22T03:40:20;100667.13;;;8.88;100.00
47670;BME280;33408;52.062;11.722;2023-03-22T03:42:52;100665.44;;;8.84;100.00
47670;BME280;33408;52.062;11.722;2023-03-22T03:45:19;100673.31;;;8.76;100.00
47670;BME280;33408;52.062;11.722;2023-03-22T03:47:48;100669.84;;;8.75;100.00
47670;BME280;33408;52.062;11.722;2023-03-22T03:50:19;100667.31;;;8.72;100.00
47670;BME280;33408;52.062;11.722;2023-03-22T03:52:46;100663.81;;;8.78;100.00
47670;BME280;33408;52.062;11.722;2023-03-22T03:55:13;100670.72;;;8.76;100.00
47670;BME280;33408;52.062;11.722;2023-03-22T03:57:39;100667.19;;;8.82;100.00
47670;BME280;33408;52.062;11.722;2023-03-22T04:00:09;100668.88;;;8.87;100.00
47670;BME280;33408;52.062;11.722;2023-03-22T04:02:35;100664.66;;;8.79;100.00
47670;BME280;33408;52.062;11.722;2023-03-22T04:05:02;100667.25;;;8.77;100.00
47670;BME280;33408;52.062;11.722;2023-03-22T04:07:29;100662.81;;;8.87;100.00
47670;BME280;33408;52.062;11.722;2023-03-22T04:09:56;100666.31;;;8.86;100.00
47670;BME280;33408;52.062;11.722;2023-03-22T04:12:22;100664.53;;;8.88;100.00
47670;BME280;33408;52.062;11.722;2023-03-22T04:14:49;100664.53;;;8.88;100.00
47670;BME280;33408;52.062;11.722;2023-03-22T04:17:17;100661.91;;;8.92;100.00
47670;BME280;33408;52.062;11.722;2023-03-22T04:19:43;100658.47;;;8.92;100.00
47670;BME280;33408;52.062;11.722;2023-03-22T04:22:10;100650.75;;;8.90;100.00
47670;BME280;33408;52.062;11.722;2023-03-22T04:24:39;100641.22;;;8.92;100.00
47670;BME280;33408;52.062;11.722;2023-03-22T04:27:05;100646.41;;;8.91;100.00
47670;BME280;33408;52.062;11.722;2023-03-22T04:29:32;100640.31;;;8.95;100.00
47670;BME280;33408;52.062;11.722;2023-03-22T04:32:00;100644.59;;;8.98;100.00
47670;BME280;33408;52.062;11.722;2023-03-22T04:34:28;100642.78;;;9.03;100.00
47670;BME280;33408;52.062;11.722;2023-03-22T04:36:56;100644.50;;;9.05;100.00
47670;BME280;33408;52.062;11.722;2023-03-22T04:39:26;100642.72;;;9.09;100.00
47670;BME280;33408;52.062;11.722;2023-03-22T04:41:53;100633.13;;;9.16;100.00
47670;BME280;33408;52.062;11.722;2023-03-22T04:44:19;100639.25;;;9.11;100.00
47670;BME280;33408;52.062;11.722;2023-03-22T04:46:46;100640.03;;;9.17;100.00
47670;BME280;33408;52.062;11.722;2023-03-22T04:49:13;100623.72;;;9.13;100.00
47670;BME280;33408;52.062;11.722;2023-03-22T04:51:41;100631.53;;;9.08;100.00
47670;BME280;33408;52.062;11.722;2023-03-22T04:54:07;100625.56;;;9.05;100.00
47670;BME280;33408;52.062;11.722;2023-03-22T04:56:34;100628.06;;;9.08;100.00
47670;BME280;33408;52.062;11.722;2023-03-22T04:59:01;100629.84;;;9.04;100.00
47670;BME280;33408;52.062;11.722;2023-03-22T05:01:27;100622.97;;;9.05;100.00
47670;BME280;33408;52.062;11.722;2023-03-22T05:03:54;100634.97;;;9.07;100.00
47670;BME280;33408;52.062;11.722;2023-03-22T05:06:20;100631.56;;;9.07;100.00
47670;BME280;33408;52.062;11.722;2023-03-22T05:08:48;100628.97;;;9.07;100.00
47670;BME280;33408;52.062;11.722;2023-03-22T05:11:16;100627.19;;;9.10;100.00
47670;BME280;33408;52.062;11.722;2023-03-22T05:13:43;100627.22;;;9.07;100.00
47670;BME280;33408;52.062;11.722;2023-03-22T05:16:10;100622.03;;;9.09;100.00
47670;BME280;33408;52.062;11.722;2023-03-22T05:18:37;100617.84;;;9.00;100.00
47670;BME280;33408;52.062;11.722;2023-03-22T05:21:10;100613.53;;;9.01;100.00
47670;BME280;33408;52.062;11.722;2023-03-22T05:23:38;100616.91;;;9.04;100.00
47670;BME280;33408;52.062;11.722;2023-03-22T05:26:06;100616.97;;;9.00;100.00
47670;BME280;33408;52.062;11.722;2023-03-22T05:28:33;100621.31;;;8.98;100.00
47670;BME280;33408;52.062;11.722;2023-03-22T05:31:00;100614.41;;;9.00;100.00
47670;BME280;33408;52.062;11.722;2023-03-22T05:33:27;100615.28;;;9.00;100.00
47670;BME280;33408;52.062;11.722;2023-03-22T05:35:54;100615.22;;;9.03;100.00
47670;BME280;33408;52.062;11.722;2023-03-22T05:38:21;100621.19;;;9.08;100.00
47670;BME280;33408;52.062;11.722;2023-03-22T05:40:48;100629.00;;;9.04;100.00
47670;BME280;33408;52.062;11.722;2023-03-22T05:43:17;100633.34;;;9.03;100.00
47670;BME280;33408;52.062;11.722;2023-03-22T05:45:43;100638.41;;;9.09;100.00
47670;BME280;33408;52.062;11.722;2023-03-22T05:48:11;100629.78;;;9.09;100.00
47670;BME280;33408;52.062;11.722;2023-03-22T05:50:38;100634.06;;;9.13;100.00
47670;BME280;33408;52.062;11.722;2023-03-22T05:53:04;100640.94;;;9.12;100.00
47670;BME280;33408;52.062;11.722;2023-03-22T05:55:31;100640.97;;;9.11;100.00
47670;BME280;33408;52.062;11.722;2023-03-22T05:57:58;100639.31;;;9.05;100.00
47670;BME280;33408;52.062;11.722;2023-03-22T06:00:28;100636.66;;;9.13;100.00
47670;BME280;33408;52.062;11.722;2023-03-22T06:02:56;100631.53;;;9.08;100.00
47670;BME280;33408;52.062;11.722;2023-03-22T06:05:28;100629.81;;;9.07;100.00
47670;BME280;33408;52.062;11.722;2023-03-22T06:07:55;100634.94;;;9.10;100.00
47670;BME280;33408;52.062;11.722;2023-03-22T06:10:22;100631.41;;;9.18;100.00
47670;BME280;33408;52.062;11.722;2023-03-22T06:12:51;100638.31;;;9.16;100.00
47670;BME280;33408;52.062;11.722;2023-03-22T06:15:17;100642.44;;;9.29;100.00
47670;BME280;33408;52.062;11.722;2023-03-22T06:17:46;100644.94;;;9.35;100.00
47670;BME280;33408;52.062;11.722;2023-03-22T06:20:13;100649.13;;;9.44;100.00
47670;BME280;33408;52.062;11.722;2023-03-22T06:22:40;100644.97;;;9.32;100.00
47670;BME280;33408;52.062;11.722;2023-03-22T06:25:08;100646.69;;;9.33;100.00
47670;BME280;33408;52.062;11.722;2023-03-22T06:27:35;100645.72;;;9.40;100.00
47670;BME280;33408;52.062;11.722;2023-03-22T06:30:02;100644.09;;;9.35;100.00
47670;BME280;33408;52.062;11.722;2023-03-22T06:32:29;100636.06;;;9.53;100.00
47670;BME280;33408;52.062;11.722;2023-03-22T06:34:57;100624.72;;;9.60;100.00
47670;BME280;33408;52.062;11.722;2023-03-22T06:37:23;100621.63;;;9.90;100.00
47670;BME280;33408;52.062;11.722;2023-03-22T06:39:50;100614.44;;;10.06;100.00
47670;BME280;33408;52.062;11.722;2023-03-22T06:42:17;100622.13;;;10.10;100.00
47670;BME280;33408;52.062;11.722;2023-03-22T06:44:44;100617.91;;;10.04;100.00
47670;BME280;33408;52.062;11.722;2023-03-22T06:47:11;100614.19;;;10.19;100.00
47670;BME280;33408;52.062;11.722;2023-03-22T06:49:38;100613.50;;;10.11;100.00
47670;BME280;33408;52.062;11.722;2023-03-22T06:52:07;100613.41;;;10.16;100.00
47670;BME280;33408;52.062;11.722;2023-03-22T06:54:33;100616.47;;;10.36;100.00
47670;BME280;33408;52.062;11.722;2023-03-22T06:57:00;100612.16;;;10.38;100.00
47670;BME280;33408;52.062;11.722;2023-03-22T06:59:27;100612.47;;;10.65;100.00
47670;BME280;33408;52.062;11.722;2023-03-22T07:01:53;100610.84;;;11.00;100.00
47670;BME280;33408;52.062;11.722;2023-03-22T07:04:20;100608.97;;;11.07;100.00
47670;BME280;33408;52.062;11.722;2023-03-22T07:06:47;100607.22;;;11.07;100.00
47670;BME280;33408;52.062;11.722;2023-03-22T07:09:15;100611.44;;;11.13;100.00
47670;BME280;33408;52.062;11.722;2023-03-22T07:11:41;100612.16;;;11.20;100.00
47670;BME280;33408;52.062;11.722;2023-03-22T07:14:08;100611.47;;;11.11;100.00
47670;BME280;33408;52.062;11.722;2023-03-22T07:16:35;100612.50;;;11.42;100.00
47670;BME280;33408;52.062;11.722;2023-03-22T07:19:01;100611.75;;;11.37;100.00
47670;BME280;33408;52.062;11.722;2023-03-22T07:21:28;100610.50;;;11.53;100.00
47670;BME280;33408;52.062;11.722;2023-03-22T07:23:55;100609.06;;;11.40;100.00
47670;BME280;33408;52.062;11.722;2023-03-22T07:26:24;100599.97;;;11.59;100.00
47670;BME280;33408;52.062;11.722;2023-03-22T07:28:51;100603.03;;;11.39;100.00
47670;BME280;33408;52.062;11.722;2023-03-22T07:31:18;100606.13;;;11.55;100.00
47670;BME280;33408;52.062;11.722;2023-03-22T07:33:44;100601.47;;;11.34;100.00
47670;BME280;33408;52.062;11.722;2023-03-22T07:36:12;100606.78;;;11.27;100.00
47670;BME280;33408;52.062;11.722;2023-03-22T07:38:39;100612.75;;;11.31;100.00
47670;BME280;33408;52.062;11.722;2023-03-22T07:41:06;100608.38;;;11.33;100.00
47670;BME280;33408;52.062;11.722;2023-03-22T07:43:34;100609.53;;;11.20;100.00
47670;BME280;33408;52.062;11.722;2023-03-22T07:46:01;100605.28;;;11.17;100.00
47670;BME280;33408;52.062;11.722;2023-03-22T07:48:28;100608.16;;;11.42;100.00
47670;BME280;33408;52.062;11.722;2023-03-22T07:50:55;100606.88;;;11.59;100.00
47670;BME280;33408;52.062;11.722;2023-03-22T07:53:22;100607.97;;;11.50;100.00
47670;BME280;33408;52.062;11.722;2023-03-22T07:55:49;100601.22;;;11.43;100.00
47670;BME280;33408;52.062;11.722;2023-03-22T07:58:15;100604.00;;;11.71;100.00
47670;BME280;33408;52.062;11.722;2023-03-22T08:00:43;100596.31;;;11.66;100.00
47670;BME280;33408;52.062;11.722;2023-03-22T08:03:11;100595.66;;;11.93;100.00
47670;BME280;33408;52.062;11.722;2023-03-22T08:05:39;100587.19;;;12.19;100.00
47670;BME280;33408;52.062;11.722;2023-03-22T08:08:06;100593.78;;;12.31;100.00
47670;BME280;33408;52.062;11.722;2023-03-22T08:10:32;100586.41;;;12.47;100.00
47670;BME280;33408;52.062;11.722;2023-03-22T08:12:59;100577.47;;;12.55;100.00
47670;BME280;33408;52.062;11.722;2023-03-22T08:15:25;100587.00;;;12.56;100.00
47670;BME280;33408;52.062;11.722;2023-03-22T08:17:55;100569.28;;;12.39;100.00
47670;BME280;33408;52.062;11.722;2023-03-22T08:20:23;100570.91;;;12.44;100.00
47670;BME280;33408;52.062;11.722;2023-03-22T08:22:51;100566.59;;;12.43;100.00
47670;BME280;33408;52.062;11.722;2023-03-22T08:25:18;100571.81;;;12.41;100.00
47670;BME280;33408;52.062;11.722;2023-03-22T08:27:44;100554.59;;;12.38;100.00
47670;BME280;33408;52.062;11.722;2023-03-22T08:30:12;100553.38;;;12.50;100.00
47670;BME280;33408;52.062;11.722;2023-03-22T08:32:40;100550.81;;;12.79;100.00
47670;BME280;33408;52.062;11.722;2023-03-22T08:35:09;100544.19;;;12.97;100.00
47670;BME280;33408;52.062;11.722;2023-03-22T08:37:36;100546.63;;;12.73;100.00
47670;BME280;33408;52.062;11.722;2023-03-22T08:40:05;100536.09;;;13.06;100.00
47670;BME280;33408;52.062;11.722;2023-03-22T08:42:33;100535.13;;;13.08;100.00
47670;BME280;33408;52.062;11.722;2023-03-22T08:45:00;100538.97;;;12.97;100.00
47670;BME280;33408;52.062;11.722;2023-03-22T08:47:27;100546.84;;;12.65;100.00
47670;BME280;33408;52.062;11.722;2023-03-22T08:49:54;100533.78;;;12.38;100.00
47670;BME280;33408;52.062;11.722;2023-03-22T08:52:21;100541.41;;;12.45;100.00
47670;BME280;33408;52.062;11.722;2023-03-22T08:54:48;100547.16;;;12.56;100.00
47670;BME280;33408;52.062;11.722;2023-03-22T08:57:16;100542.13;;;12.78;100.00
47670;BME280;33408;52.062;11.722;2023-03-22T08:59:43;100544.00;;;13.03;100.00
47670;BME280;33408;52.062;11.722;2023-03-22T09:02:10;100531.97;;;12.99;100.00
47670;BME280;33408;52.062;11.722;2023-03-22T09:04:37;100533.13;;;12.90;100.00
47670;BME280;33408;52.062;11.722;2023-03-22T09:07:03;100526.81;;;12.97;100.00
47670;BME280;33408;52.062;11.722;2023-03-22T09:09:31;100529.13;;;13.06;100.00
47670;BME280;33408;52.062;11.722;2023-03-22T09:11:58;100518.22;;;13.22;100.00
47670;BME280;33408;52.062;11.722;2023-03-22T09:14:24;100509.09;;;13.37;100.00
47670;BME280;33408;52.062;11.722;2023-03-22T09:16:51;100525.94;;;13.52;100.00
47670;BME280;33408;52.062;11.722;2023-03-22T09:19:18;100526.09;;;13.72;100.00
47670;BME280;33408;52.062;11.722;2023-03-22T09:21:44;100520.44;;;13.84;100.00
47670;BME280;33408;52.062;11.722;2023-03-22T09:24:11;100513.28;;;13.66;100.00
47670;BME280;33408;52.062;11.722;2023-03-22T09:26:39;100524.44;;;13.70;100.00
47670;BME280;33408;52.062;11.722;2023-03-22T09:29:05;100519.19;;;13.71;100.00
47670;BME280;33408;52.062;11.722;2023-03-22T09:31:32;100520.84;;;13.48;100.00
47670;BME280;33408;52.062;11.722;2023-03-22T09:33:59;100513.56;;;13.33;100.00
47670;BME280;33408;52.062;11.722;2023-03-22T09:36:25;100516.50;;;13.47;100.00
47670;BME280;33408;52.062;11.722;2023-03-22T09:38:52;100508.66;;;13.49;100.00
47670;BME280;33408;52.062;11.722;2023-03-22T09:41:21;100501.59;;;13.53;100.00
47670;BME280;33408;52.062;11.722;2023-03-22T09:43:54;100490.84;;;13.87;100.00
47670;BME280;33408;52.062;11.722;2023-03-22T09:46:28;100489.38;;;14.03;100.00
47670;BME280;33408;52.062;11.722;2023-03-22T09:48:56;100484.66;;;14.37;100.00
47670;BME280;33408;52.062;11.722;2023-03-22T09:51:29;100479.88;;;14.48;100.00
47670;BME280;33408;52.062;11.722;2023-03-22T09:53:58;100491.50;;;14.63;100.00
47670;BME280;33408;52.062;11.722;2023-03-22T09:56:26;100474.19;;;14.15;100.00
47670;BME280;33408;52.062;11.722;2023-03-22T09:59:02;100483.59;;;14.43;100.00
47670;BME280;33408;52.062;11.722;2023-03-22T10:01:34;100487.09;;;14.65;100.00
47670;BME280;33408;52.062;11.722;2023-03-22T10:04:22;100479.75;;;14.75;100.00
47670;BME280;33408;52.062;11.722;2023-03-22T10:06:59;100490.97;;;14.53;100.00
47670;BME280;33408;52.062;11.722;2023-03-22T10:09:34;100488.41;;;14.75;100.00
47670;BME280;33408;52.062;11.722;2023-03-22T10:12:09;100471.31;;;15.11;100.00
47670;BME280;33408;52.062;11.722;2023-03-22T10:14:46;100470.69;;;15.26;100.00
47670;BME280;33408;52.062;11.722;2023-03-22T10:17:17;100462.38;;;14.74;100.00
47670;BME280;33408;52.062;11.722;2023-03-22T10:19:50;100460.66;;;14.73;100.00
47670;BME280;33408;52.062;11.722;2023-03-22T10:22:23;100467.47;;;14.77;100.00
47670;BME280;33408;52.062;11.722;2023-03-22T10:24:50;100460.53;;;14.76;100.00
47670;BME280;33408;52.062;11.722;2023-03-22T10:27:20;100453.00;;;14.46;100.00
47670;BME280;33408;52.062;11.722;2023-03-22T10:29:50;100461.25;;;14.35;100.00
47670;BME280;33408;52.062;11.722;2023-03-22T10:32:19;100455.56;;;14.70;100.00
47670;BME280;33408;52.062;11.722;2023-03-22T10:34:50;100454.78;;;14.90;100.00
47670;BME280;33408;52.062;11.722;2023-03-22T10:37:21;100457.88;;;15.20;100.00
47670;BME280;33408;52.062;11.722;2023-03-22T10:39:51;100452.63;;;15.00;100.00
47670;BME280;33408;52.062;11.722;2023-03-22T10:42:21;100437.94;;;14.97;100.00
47670;BME280;33408;52.062;11.722;2023-03-22T10:44:53;100435.00;;;14.84;100.00
47670;BME280;33408;52.062;11.722;2023-03-22T10:47:27;100432.41;;;14.62;100.00
47670;BME280;33408;52.062;11.722;2023-03-22T10:49:56;100429.53;;;14.90;100.00
47670;BME280;33408;52.062;11.722;2023-03-22T10:52:35;100433.72;;;14.94;100.00
47670;BME280;33408;52.062;11.722;2023-03-22T10:55:08;100422.63;;;15.10;100.00
47670;BME280;33408;52.062;11.722;2023-03-22T10:57:35;100417.13;;;15.16;100.00
47670;BME280;33408;52.062;11.722;2023-03-22T11:00:06;100414.19;;;15.03;100.00
47670;BME280;33408;52.062;11.722;2023-03-22T11:02:43;100421.00;;;14.65;100.00
47670;BME280;33408;52.062;11.722;2023-03-22T11:05:19;100419.13;;;14.68;100.00
47670;BME280;33408;52.062;11.722;2023-03-22T11:07:48;100426.50;;;15.22;100.00
47670;BME280;33408;52.062;11.722;2023-03-22T11:10:21;100428.03;;;15.46;100.00
47670;BME280;33408;52.062;11.722;2023-03-22T11:12:50;100426.34;;;15.25;100.00
47670;BME280;33408;52.062;11.722;2023-03-22T11:15:30;100412.94;;;15.93;100.00
47670;BME280;33408;52.062;11.722;2023-03-22T11:17:59;100421.22;;;16.02;100.00
47670;BME280;33408;52.062;11.722;2023-03-22T11:20:26;100402.69;;;16.26;100.00
47670;BME280;33408;52.062;11.722;2023-03-22T11:22:54;100407.25;;;15.64;99.29
47670;BME280;33408;52.062;11.722;2023-03-22T11:25:25;100390.34;;;15.52;98.96
47670;BME280;33408;52.062;11.722;2023-03-22T11:27:55;100386.19;;;15.67;100.00
47670;BME280;33408;52.062;11.722;2023-03-22T11:30:24;100385.56;;;15.62;100.00
47670;BME280;33408;52.062;11.722;2023-03-22T11:33:01;100387.06;;;15.47;100.00
47670;BME280;33408;52.062;11.722;2023-03-22T11:35:36;100384.56;;;15.64;100.00
47670;BME280;33408;52.062;11.722;2023-03-22T11:38:03;100378.75;;;15.97;100.00
47670;BME280;33408;52.062;11.722;2023-03-22T11:40:32;100380.28;;;16.01;100.00
47670;BME280;33408;52.062;11.722;2023-03-22T11:43:11;100368.44;;;15.94;97.43
47670;BME280;33408;52.062;11.722;2023-03-22T11:45:42;100372.97;;;15.91;93.86
47670;BME280;33408;52.062;11.722;2023-03-22T11:48:14;100367.97;;;16.22;98.03
47670;BME280;33408;52.062;11.722;2023-03-22T11:50:43;100370.47;;;16.43;98.13
47670;BME280;33408;52.062;11.722;2023-03-22T11:53:12;100362.88;;;16.19;97.07
47670;BME280;33408;52.062;11.722;2023-03-22T11:55:43;100354.78;;;16.43;97.36
47670;BME280;33408;52.062;11.722;2023-03-22T11:58:22;100350.69;;;16.37;97.50
47670;BME280;33408;52.062;11.722;2023-03-22T12:00:51;100354.59;;;16.29;98.02
47670;BME280;33408;52.062;11.722;2023-03-22T12:03:23;100352.81;;;16.12;93.83
47670;BME280;33408;52.062;11.722;2023-03-22T12:05:51;100361.00;;;16.04;95.98
47670;BME280;33408;52.062;11.722;2023-03-22T12:08:24;100365.47;;;16.02;98.21
47670;BME280;33408;52.062;11.722;2023-03-22T12:10:54;100367.47;;;15.78;100.00
47670;BME280;33408;52.062;11.722;2023-03-22T12:13:29;100364.78;;;15.79;99.14
47670;BME280;33408;52.062;11.722;2023-03-22T12:16:00;100363.19;;;16.13;100.00
47670;BME280;33408;52.062;11.722;2023-03-22T12:18:33;100349.09;;;16.16;96.09
47670;BME280;33408;52.062;11.722;2023-03-22T12:21:01;100350.22;;;16.47;99.58
47670;BME280;33408;52.062;11.722;2023-03-22T12:23:30;100346.56;;;16.51;94.11
47670;BME280;33408;52.062;11.722;2023-03-22T12:26:03;100350.31;;;16.28;91.83
47670;BME280;33408;52.062;11.722;2023-03-22T12:28:33;100330.75;;;16.35;91.31
47670;BME280;33408;52.062;11.722;2023-03-22T12:31:03;100333.09;;;16.41;94.34
47670;BME280;33408;52.062;11.722;2023-03-22T12:33:36;100331.69;;;16.51;92.88
47670;BME280;33408;52.062;11.722;2023-03-22T12:36:09;100334.75;;;16.42;92.05
47670;BME280;33408;52.062;11.722;2023-03-22T12:38:45;100327.88;;;16.58;90.58
47670;BME280;33408;52.062;11.722;2023-03-22T12:41:15;100328.31;;;16.67;92.36
47670;BME280;33408;52.062;11.722;2023-03-22T12:43:48;100326.97;;;16.23;90.36
47670;BME280;33408;52.062;11.722;2023-03-22T12:46:19;100324.91;;;15.93;89.81
47670;BME280;33408;52.062;11.722;2023-03-22T12:48:49;100320.00;;;16.04;91.13
47670;BME280;33408;52.062;11.722;2023-03-22T12:51:18;100331.22;;;15.89;91.70
47670;BME280;33408;52.062;11.722;2023-03-22T12:53:46;100315.22;;;15.95;91.42